New Hanover Township, Pennsylvania
Current Conditions -  °F | °C
As of 1:54 PM on Sunday 23 Nov 2014 (Local Time) from KPTW Reporting Station
Clear Clear  
Wind Chill: 57°   Ceiling: Unl
Heat Index: 57°   Visibility: 10mi
Dew Point: 24°   Wind: 6mph
Humidity: 28%   Direction: NA
Pressure: 30.13"   Gusts: NA
Location:  40.3096°N, 75.5833°W
Report Text: KPTW 231854Z AUTO VRB05KT 10SM CLR 14/M04 A3013 RMK AO2 SLP201 T01391044
Loading
Personal Weather Stations






























Interactive Weather Map New forecast layout! Learn more

10-Day Weather Forecast

Advertisements
Track Severe Weather on mobile